METAR Data
IDs: Format: Raw Decoded Include TAF

Data at: 1600 UTC 18 Feb 2019

METAR for:KFFL (Fairfield Muni, IA, US)
Text:KFFL 181555Z AUTO 32007KT 10SM CLR M09/M11 A3040 RMK AO2 PWINO
Temperature: -9.0°C ( 16°F)
Dewpoint:-11.0°C ( 12°F) [RH = 85%]
Pressure (altimeter):30.40 inches Hg (1029.5 mb)
Winds:from the NW (320 degrees) at 8 MPH (7 knots; 3.6 m/s)
Visibility:10 or more sm (16+ km)
Ceiling:at least 12,000 feet AGL
Clouds:sky clear below 12,000 feet AGL
QC Flag:automated observation with no human augmentation